Terminal Aerodrome Forecast
Issued by NWS

Home | Current Version | Previous Version | Graphics & Text | Print | Product List | Glossary On
Versions: 1 2 3 4 5 6 7 8 9 10 11 12 13 14 15 16 17 18
085
FTUS43 KICT 190520
TAFSLN
TAF
KSLN 190520Z 1906/2006 18018G25KT P6SM SCT015 BKN120 WS020/21050KT
      TEMPO 1906/1909 BKN015
     FM190900 21016G24KT P6SM SCT050 BKN080
     FM191200 25016G24KT P6SM BKN030
     FM191400 34014KT P6SM BKN030
     FM192300 02012KT P6SM BKN060=

USA.gov is the U.S. government's official web portal to all federal, state and local government web resources and services.